sensor_id;sensor_type;location;lat;lon;timestamp;P1;durP1;ratioP1;P2;durP2;ratioP2
22268;SDS011;11303;50.772;19.670;2023-05-17T00:00:29;0.80;;;0.30;;
22268;SDS011;11303;50.772;19.670;2023-05-17T00:02:31;0.55;;;0.55;;
22268;SDS011;11303;50.772;19.670;2023-05-17T00:04:32;0.00;;;0.00;;
22268;SDS011;11303;50.772;19.670;2023-05-17T00:06:34;0.00;;;0.00;;
22268;SDS011;11303;50.772;19.670;2023-05-17T00:08:36;0.00;;;0.00;;
22268;SDS011;11303;50.772;19.670;2023-05-17T00:10:38;0.20;;;0.20;;
22268;SDS011;11303;50.772;19.670;2023-05-17T00:12:39;0.00;;;0.00;;
22268;SDS011;11303;50.772;19.670;2023-05-17T00:14:41;1.00;;;1.00;;
22268;SDS011;11303;50.772;19.670;2023-05-17T00:16:42;0.00;;;0.00;;
22268;SDS011;11303;50.772;19.670;2023-05-17T00:18:44;0.20;;;0.20;;
22268;SDS011;11303;50.772;19.670;2023-05-17T00:20:46;0.00;;;0.00;;
22268;SDS011;11303;50.772;19.670;2023-05-17T00:22:48;0.00;;;0.00;;
22268;SDS011;11303;50.772;19.670;2023-05-17T00:24:49;0.10;;;0.10;;
22268;SDS011;11303;50.772;19.670;2023-05-17T00:26:51;0.10;;;0.10;;
22268;SDS011;11303;50.772;19.670;2023-05-17T00:28:52;0.20;;;0.20;;
22268;SDS011;11303;50.772;19.670;2023-05-17T00:30:54;0.43;;;0.43;;
22268;SDS011;11303;50.772;19.670;2023-05-17T00:32:56;0.40;;;0.40;;
22268;SDS011;11303;50.772;19.670;2023-05-17T00:34:57;0.20;;;0.20;;
22268;SDS011;11303;50.772;19.670;2023-05-17T00:36:59;0.10;;;0.10;;
22268;SDS011;11303;50.772;19.670;2023-05-17T00:39:00;0.00;;;0.00;;
22268;SDS011;11303;50.772;19.670;2023-05-17T00:41:02;0.40;;;0.40;;
22268;SDS011;11303;50.772;19.670;2023-05-17T00:43:04;0.10;;;0.10;;
22268;SDS011;11303;50.772;19.670;2023-05-17T00:45:05;0.00;;;0.00;;
22268;SDS011;11303;50.772;19.670;2023-05-17T00:47:07;0.15;;;0.15;;
22268;SDS011;11303;50.772;19.670;2023-05-17T00:49:09;0.00;;;0.00;;
22268;SDS011;11303;50.772;19.670;2023-05-17T00:51:11;0.00;;;0.00;;
22268;SDS011;11303;50.772;19.670;2023-05-17T00:53:14;0.00;;;0.00;;
22268;SDS011;11303;50.772;19.670;2023-05-17T00:55:16;0.00;;;0.00;;
22268;SDS011;11303;50.772;19.670;2023-05-17T00:57:20;0.00;;;0.00;;
22268;SDS011;11303;50.772;19.670;2023-05-17T00:59:22;0.75;;;0.47;;
22268;SDS011;11303;50.772;19.670;2023-05-17T01:01:24;0.00;;;0.00;;
22268;SDS011;11303;50.772;19.670;2023-05-17T01:03:27;0.15;;;0.15;;
22268;SDS011;11303;50.772;19.670;2023-05-17T01:05:29;0.20;;;0.20;;
22268;SDS011;11303;50.772;19.670;2023-05-17T01:07:31;0.63;;;0.63;;
22268;SDS011;11303;50.772;19.670;2023-05-17T01:09:32;0.50;;;0.50;;
22268;SDS011;11303;50.772;19.670;2023-05-17T01:18:43;0.10;;;0.10;;
22268;SDS011;11303;50.772;19.670;2023-05-17T01:20:49;0.40;;;0.40;;
22268;SDS011;11303;50.772;19.670;2023-05-17T01:25:33;0.28;;;0.28;;
22268;SDS011;11303;50.772;19.670;2023-05-17T01:27:42;0.30;;;0.30;;
22268;SDS011;11303;50.772;19.670;2023-05-17T01:29:48;0.30;;;0.30;;
22268;SDS011;11303;50.772;19.670;2023-05-17T01:31:51;0.03;;;0.03;;
22268;SDS011;11303;50.772;19.670;2023-05-17T01:33:54;0.00;;;0.00;;
22268;SDS011;11303;50.772;19.670;2023-05-17T01:35:58;0.10;;;0.10;;
22268;SDS011;11303;50.772;19.670;2023-05-17T01:37:59;16.98;;;1.50;;
22268;SDS011;11303;50.772;19.670;2023-05-17T01:40:01;0.10;;;0.10;;
22268;SDS011;11303;50.772;19.670;2023-05-17T01:42:06;0.10;;;0.10;;
22268;SDS011;11303;50.772;19.670;2023-05-17T01:46:37;2.33;;;1.88;;
22268;SDS011;11303;50.772;19.670;2023-05-17T01:48:43;0.75;;;0.75;;
22268;SDS011;11303;50.772;19.670;2023-05-17T01:50:50;0.63;;;0.63;;
22268;SDS011;11303;50.772;19.670;2023-05-17T01:52:58;0.05;;;0.05;;
22268;SDS011;11303;50.772;19.670;2023-05-17T01:57:31;0.00;;;0.00;;
22268;SDS011;11303;50.772;19.670;2023-05-17T01:59:37;2.38;;;1.55;;
22268;SDS011;11303;50.772;19.670;2023-05-17T02:01:39;0.75;;;0.75;;
22268;SDS011;11303;50.772;19.670;2023-05-17T02:03:42;0.10;;;0.10;;
22268;SDS011;11303;50.772;19.670;2023-05-17T02:05:44;0.30;;;0.30;;
22268;SDS011;11303;50.772;19.670;2023-05-17T02:07:45;0.98;;;0.98;;
22268;SDS011;11303;50.772;19.670;2023-05-17T02:09:47;1.55;;;0.70;;
22268;SDS011;11303;50.772;19.670;2023-05-17T02:11:48;0.10;;;0.10;;
22268;SDS011;11303;50.772;19.670;2023-05-17T02:13:50;0.75;;;0.75;;
22268;SDS011;11303;50.772;19.670;2023-05-17T02:15:52;16.23;;;14.00;;
22268;SDS011;11303;50.772;19.670;2023-05-17T02:17:53;19.52;;;15.43;;
22268;SDS011;11303;50.772;19.670;2023-05-17T02:19:55;11.75;;;9.75;;
22268;SDS011;11303;50.772;19.670;2023-05-17T02:21:57;12.05;;;10.60;;
22268;SDS011;11303;50.772;19.670;2023-05-17T02:23:59;4.72;;;3.85;;
22268;SDS011;11303;50.772;19.670;2023-05-17T02:26:00;12.32;;;10.05;;
22268;SDS011;11303;50.772;19.670;2023-05-17T02:28:02;9.30;;;7.45;;
22268;SDS011;11303;50.772;19.670;2023-05-17T02:30:04;13.13;;;10.00;;
22268;SDS011;11303;50.772;19.670;2023-05-17T02:32:06;9.68;;;8.38;;
22268;SDS011;11303;50.772;19.670;2023-05-17T02:34:08;7.60;;;4.40;;
22268;SDS011;11303;50.772;19.670;2023-05-17T02:36:10;10.38;;;9.32;;
22268;SDS011;11303;50.772;19.670;2023-05-17T02:38:11;9.13;;;8.23;;
22268;SDS011;11303;50.772;19.670;2023-05-17T02:40:13;9.57;;;8.18;;
22268;SDS011;11303;50.772;19.670;2023-05-17T02:42:15;10.18;;;9.07;;
22268;SDS011;11303;50.772;19.670;2023-05-17T02:44:16;9.43;;;8.48;;
22268;SDS011;11303;50.772;19.670;2023-05-17T02:46:18;10.82;;;9.25;;
22268;SDS011;11303;50.772;19.670;2023-05-17T02:48:19;12.23;;;10.93;;
22268;SDS011;11303;50.772;19.670;2023-05-17T02:50:21;11.07;;;9.30;;
22268;SDS011;11303;50.772;19.670;2023-05-17T02:52:23;12.48;;;10.90;;
22268;SDS011;11303;50.772;19.670;2023-05-17T02:54:24;7.63;;;5.72;;
22268;SDS011;11303;50.772;19.670;2023-05-17T02:56:26;11.90;;;9.70;;
22268;SDS011;11303;50.772;19.670;2023-05-17T02:58:28;6.78;;;6.10;;
22268;SDS011;11303;50.772;19.670;2023-05-17T03:00:30;12.43;;;10.68;;
22268;SDS011;11303;50.772;19.670;2023-05-17T03:02:31;12.38;;;11.07;;
22268;SDS011;11303;50.772;19.670;2023-05-17T03:04:33;12.73;;;11.15;;
22268;SDS011;11303;50.772;19.670;2023-05-17T03:06:36;12.70;;;9.55;;
22268;SDS011;11303;50.772;19.670;2023-05-17T03:08:38;14.27;;;11.27;;
22268;SDS011;11303;50.772;19.670;2023-05-17T03:10:40;11.80;;;10.43;;
22268;SDS011;11303;50.772;19.670;2023-05-17T03:12:42;11.13;;;8.75;;
22268;SDS011;11303;50.772;19.670;2023-05-17T03:14:44;13.85;;;11.75;;
22268;SDS011;11303;50.772;19.670;2023-05-17T03:16:45;16.23;;;12.27;;
22268;SDS011;11303;50.772;19.670;2023-05-17T03:18:47;13.48;;;11.32;;
22268;SDS011;11303;50.772;19.670;2023-05-17T03:20:49;12.30;;;10.73;;
22268;SDS011;11303;50.772;19.670;2023-05-17T03:22:51;15.07;;;12.50;;
22268;SDS011;11303;50.772;19.670;2023-05-17T03:24:53;11.25;;;8.90;;
22268;SDS011;11303;50.772;19.670;2023-05-17T03:26:54;13.85;;;11.32;;
22268;SDS011;11303;50.772;19.670;2023-05-17T03:28:56;13.85;;;10.20;;
22268;SDS011;11303;50.772;19.670;2023-05-17T03:30:58;17.05;;;12.95;;
22268;SDS011;11303;50.772;19.670;2023-05-17T03:32:59;10.65;;;8.05;;
22268;SDS011;11303;50.772;19.670;2023-05-17T03:35:01;14.93;;;11.80;;
22268;SDS011;11303;50.772;19.670;2023-05-17T03:37:03;10.65;;;8.82;;
22268;SDS011;11303;50.772;19.670;2023-05-17T03:39:04;13.82;;;11.00;;
22268;SDS011;11303;50.772;19.670;2023-05-17T03:41:06;8.65;;;6.53;;
22268;SDS011;11303;50.772;19.670;2023-05-17T03:43:08;7.70;;;5.88;;
22268;SDS011;11303;50.772;19.670;2023-05-17T03:45:10;12.93;;;10.93;;
22268;SDS011;11303;50.772;19.670;2023-05-17T03:47:11;10.15;;;6.05;;
22268;SDS011;11303;50.772;19.670;2023-05-17T03:49:13;9.07;;;7.05;;
22268;SDS011;11303;50.772;19.670;2023-05-17T03:51:15;13.23;;;9.55;;
22268;SDS011;11303;50.772;19.670;2023-05-17T03:53:16;8.38;;;6.95;;
22268;SDS011;11303;50.772;19.670;2023-05-17T03:55:18;9.93;;;8.02;;
22268;SDS011;11303;50.772;19.670;2023-05-17T03:57:20;13.70;;;10.02;;
22268;SDS011;11303;50.772;19.670;2023-05-17T03:59:22;13.68;;;9.27;;
22268;SDS011;11303;50.772;19.670;2023-05-17T04:01:24;12.82;;;9.38;;
22268;SDS011;11303;50.772;19.670;2023-05-17T04:03:25;17.42;;;12.82;;
22268;SDS011;11303;50.772;19.670;2023-05-17T04:05:27;16.95;;;12.85;;
22268;SDS011;11303;50.772;19.670;2023-05-17T04:07:29;16.65;;;11.65;;
22268;SDS011;11303;50.772;19.670;2023-05-17T04:09:30;15.57;;;11.25;;
22268;SDS011;11303;50.772;19.670;2023-05-17T04:11:35;15.70;;;12.88;;
22268;SDS011;11303;50.772;19.670;2023-05-17T04:13:41;12.93;;;9.52;;
22268;SDS011;11303;50.772;19.670;2023-05-17T04:15:42;10.75;;;8.07;;
22268;SDS011;11303;50.772;19.670;2023-05-17T04:17:44;12.50;;;8.90;;
22268;SDS011;11303;50.772;19.670;2023-05-17T04:19:46;15.60;;;10.90;;
22268;SDS011;11303;50.772;19.670;2023-05-17T04:21:48;16.75;;;13.55;;
22268;SDS011;11303;50.772;19.670;2023-05-17T04:23:52;19.00;;;13.13;;
22268;SDS011;11303;50.772;19.670;2023-05-17T04:25:53;18.50;;;13.80;;
22268;SDS011;11303;50.772;19.670;2023-05-17T04:27:56;16.50;;;12.95;;
22268;SDS011;11303;50.772;19.670;2023-05-17T04:29:58;12.55;;;7.90;;
22268;SDS011;11303;50.772;19.670;2023-05-17T04:32:00;14.75;;;9.45;;
22268;SDS011;11303;50.772;19.670;2023-05-17T04:34:01;17.60;;;13.23;;
22268;SDS011;11303;50.772;19.670;2023-05-17T04:36:03;22.95;;;16.63;;
22268;SDS011;11303;50.772;19.670;2023-05-17T04:38:05;19.30;;;15.02;;
22268;SDS011;11303;50.772;19.670;2023-05-17T04:40:06;17.92;;;11.20;;
22268;SDS011;11303;50.772;19.670;2023-05-17T04:42:08;25.38;;;18.85;;
22268;SDS011;11303;50.772;19.670;2023-05-17T04:44:10;20.45;;;14.77;;
22268;SDS011;11303;50.772;19.670;2023-05-17T04:46:12;23.75;;;15.50;;
22268;SDS011;11303;50.772;19.670;2023-05-17T04:48:14;26.65;;;19.45;;
22268;SDS011;11303;50.772;19.670;2023-05-17T04:50:16;27.75;;;17.10;;
22268;SDS011;11303;50.772;19.670;2023-05-17T04:52:18;24.27;;;16.23;;
22268;SDS011;11303;50.772;19.670;2023-05-17T04:54:20;16.85;;;10.80;;
22268;SDS011;11303;50.772;19.670;2023-05-17T04:56:22;25.65;;;16.30;;
22268;SDS011;11303;50.772;19.670;2023-05-17T04:58:23;18.58;;;13.95;;
22268;SDS011;11303;50.772;19.670;2023-05-17T05:00:25;28.98;;;19.38;;
22268;SDS011;11303;50.772;19.670;2023-05-17T05:02:27;17.10;;;11.23;;
22268;SDS011;11303;50.772;19.670;2023-05-17T05:04:29;20.38;;;14.65;;
22268;SDS011;11303;50.772;19.670;2023-05-17T05:06:31;16.00;;;11.93;;
22268;SDS011;11303;50.772;19.670;2023-05-17T05:08:33;14.88;;;10.32;;
22268;SDS011;11303;50.772;19.670;2023-05-17T05:10:35;16.92;;;12.15;;
22268;SDS011;11303;50.772;19.670;2023-05-17T05:12:37;23.98;;;16.70;;
22268;SDS011;11303;50.772;19.670;2023-05-17T05:14:39;13.05;;;9.15;;
22268;SDS011;11303;50.772;19.670;2023-05-17T05:16:40;26.23;;;15.50;;
22268;SDS011;11303;50.772;19.670;2023-05-17T05:18:42;15.07;;;8.95;;
22268;SDS011;11303;50.772;19.670;2023-05-17T05:20:45;17.60;;;10.85;;
22268;SDS011;11303;50.772;19.670;2023-05-17T05:22:48;24.33;;;15.85;;
22268;SDS011;11303;50.772;19.670;2023-05-17T05:24:50;29.65;;;19.27;;
22268;SDS011;11303;50.772;19.670;2023-05-17T05:26:52;18.15;;;12.38;;
22268;SDS011;11303;50.772;19.670;2023-05-17T05:28:53;26.05;;;17.05;;
22268;SDS011;11303;50.772;19.670;2023-05-17T05:30:56;13.13;;;9.55;;
22268;SDS011;11303;50.772;19.670;2023-05-17T05:32:59;22.15;;;15.18;;
22268;SDS011;11303;50.772;19.670;2023-05-17T05:35:01;26.73;;;18.95;;
22268;SDS011;11303;50.772;19.670;2023-05-17T05:37:02;30.58;;;18.73;;
22268;SDS011;11303;50.772;19.670;2023-05-17T05:39:04;25.08;;;16.92;;
22268;SDS011;11303;50.772;19.670;2023-05-17T05:41:09;25.42;;;16.88;;
22268;SDS011;11303;50.772;19.670;2023-05-17T05:43:11;17.30;;;10.52;;
22268;SDS011;11303;50.772;19.670;2023-05-17T05:45:12;12.82;;;9.30;;
22268;SDS011;11303;50.772;19.670;2023-05-17T05:47:14;13.60;;;10.20;;
22268;SDS011;11303;50.772;19.670;2023-05-17T05:49:16;10.82;;;7.57;;
22268;SDS011;11303;50.772;19.670;2023-05-17T05:51:17;9.70;;;7.03;;
22268;SDS011;11303;50.772;19.670;2023-05-17T05:53:22;13.35;;;9.45;;
22268;SDS011;11303;50.772;19.670;2023-05-17T05:55:24;13.73;;;9.48;;
22268;SDS011;11303;50.772;19.670;2023-05-17T05:57:25;13.43;;;8.98;;
22268;SDS011;11303;50.772;19.670;2023-05-17T05:59:27;20.40;;;13.93;;
22268;SDS011;11303;50.772;19.670;2023-05-17T06:01:29;24.63;;;15.68;;
22268;SDS011;11303;50.772;19.670;2023-05-17T06:03:31;19.63;;;13.00;;
22268;SDS011;11303;50.772;19.670;2023-05-17T06:05:32;18.70;;;13.82;;
22268;SDS011;11303;50.772;19.670;2023-05-17T06:07:34;21.98;;;15.23;;
22268;SDS011;11303;50.772;19.670;2023-05-17T06:09:36;19.20;;;14.05;;
22268;SDS011;11303;50.772;19.670;2023-05-17T06:11:37;28.35;;;17.98;;
22268;SDS011;11303;50.772;19.670;2023-05-17T06:13:40;13.88;;;8.57;;
22268;SDS011;11303;50.772;19.670;2023-05-17T06:15:41;23.42;;;14.50;;
22268;SDS011;11303;50.772;19.670;2023-05-17T06:17:43;13.23;;;9.57;;
22268;SDS011;11303;50.772;19.670;2023-05-17T06:19:45;13.15;;;9.63;;
22268;SDS011;11303;50.772;19.670;2023-05-17T06:21:46;15.27;;;9.18;;
22268;SDS011;11303;50.772;19.670;2023-05-17T06:23:48;16.77;;;9.18;;
22268;SDS011;11303;50.772;19.670;2023-05-17T06:25:50;13.73;;;10.48;;
22268;SDS011;11303;50.772;19.670;2023-05-17T06:27:52;9.88;;;6.65;;
22268;SDS011;11303;50.772;19.670;2023-05-17T06:29:54;21.02;;;7.40;;
22268;SDS011;11303;50.772;19.670;2023-05-17T06:31:55;20.00;;;13.32;;
22268;SDS011;11303;50.772;19.670;2023-05-17T06:33:58;21.88;;;14.95;;
22268;SDS011;11303;50.772;19.670;2023-05-17T06:36:00;19.73;;;13.95;;
22268;SDS011;11303;50.772;19.670;2023-05-17T06:38:06;24.42;;;17.20;;
22268;SDS011;11303;50.772;19.670;2023-05-17T06:40:08;30.25;;;20.25;;
22268;SDS011;11303;50.772;19.670;2023-05-17T06:42:17;32.03;;;22.15;;
22268;SDS011;11303;50.772;19.670;2023-05-17T06:44:19;13.60;;;9.52;;
22268;SDS011;11303;50.772;19.670;2023-05-17T06:46:20;28.98;;;20.02;;
22268;SDS011;11303;50.772;19.670;2023-05-17T06:48:22;25.45;;;15.50;;
22268;SDS011;11303;50.772;19.670;2023-05-17T06:50:24;30.98;;;20.35;;
22268;SDS011;11303;50.772;19.670;2023-05-17T06:52:29;32.88;;;21.67;;
22268;SDS011;11303;50.772;19.670;2023-05-17T06:54:30;26.70;;;15.27;;
22268;SDS011;11303;50.772;19.670;2023-05-17T06:56:32;26.98;;;17.33;;
22268;SDS011;11303;50.772;19.670;2023-05-17T06:58:34;27.05;;;16.95;;
22268;SDS011;11303;50.772;19.670;2023-05-17T07:00:36;34.15;;;19.92;;
22268;SDS011;11303;50.772;19.670;2023-05-17T07:02:37;27.90;;;17.02;;
22268;SDS011;11303;50.772;19.670;2023-05-17T07:04:39;30.25;;;18.98;;
22268;SDS011;11303;50.772;19.670;2023-05-17T07:06:41;23.33;;;12.75;;
22268;SDS011;11303;50.772;19.670;2023-05-17T07:08:42;32.63;;;21.92;;
22268;SDS011;11303;50.772;19.670;2023-05-17T07:10:44;24.77;;;14.45;;
22268;SDS011;11303;50.772;19.670;2023-05-17T07:12:46;35.38;;;21.33;;
22268;SDS011;11303;50.772;19.670;2023-05-17T07:14:48;28.33;;;16.45;;
22268;SDS011;11303;50.772;19.670;2023-05-17T07:16:49;21.08;;;12.35;;
22268;SDS011;11303;50.772;19.670;2023-05-17T07:18:51;32.05;;;19.17;;
22268;SDS011;11303;50.772;19.670;2023-05-17T07:20:53;31.25;;;17.55;;
22268;SDS011;11303;50.772;19.670;2023-05-17T07:22:54;34.85;;;20.20;;
22268;SDS011;11303;50.772;19.670;2023-05-17T07:24:56;33.42;;;19.85;;
22268;SDS011;11303;50.772;19.670;2023-05-17T07:26:58;40.17;;;23.30;;
22268;SDS011;11303;50.772;19.670;2023-05-17T07:28:59;35.28;;;21.65;;
22268;SDS011;11303;50.772;19.670;2023-05-17T07:31:01;38.58;;;23.35;;
22268;SDS011;11303;50.772;19.670;2023-05-17T07:33:02;23.45;;;13.35;;
22268;SDS011;11303;50.772;19.670;2023-05-17T07:35:04;30.50;;;17.88;;
22268;SDS011;11303;50.772;19.670;2023-05-17T07:37:06;44.05;;;23.75;;
22268;SDS011;11303;50.772;19.670;2023-05-17T07:39:08;44.25;;;22.23;;
22268;SDS011;11303;50.772;19.670;2023-05-17T07:41:10;57.00;;;26.55;;
22268;SDS011;11303;50.772;19.670;2023-05-17T07:43:14;30.20;;;17.30;;
22268;SDS011;11303;50.772;19.670;2023-05-17T07:45:15;39.92;;;19.98;;
22268;SDS011;11303;50.772;19.670;2023-05-17T07:47:17;35.40;;;18.13;;
22268;SDS011;11303;50.772;19.670;2023-05-17T07:49:19;52.15;;;24.70;;
22268;SDS011;11303;50.772;19.670;2023-05-17T07:51:21;34.58;;;14.98;;
22268;SDS011;11303;50.772;19.670;2023-05-17T07:53:22;34.97;;;19.13;;
22268;SDS011;11303;50.772;19.670;2023-05-17T07:55:24;50.13;;;27.38;;
22268;SDS011;11303;50.772;19.670;2023-05-17T07:57:26;26.58;;;15.73;;
22268;SDS011;11303;50.772;19.670;2023-05-17T07:59:27;38.22;;;19.27;;
22268;SDS011;11303;50.772;19.670;2023-05-17T08:01:29;55.22;;;29.55;;
22268;SDS011;11303;50.772;19.670;2023-05-17T08:03:31;51.50;;;26.55;;
22268;SDS011;11303;50.772;19.670;2023-05-17T08:05:32;43.05;;;19.73;;
22268;SDS011;11303;50.772;19.670;2023-05-17T08:07:34;32.38;;;15.90;;
22268;SDS011;11303;50.772;19.670;2023-05-17T08:09:36;42.67;;;20.35;;
22268;SDS011;11303;50.772;19.670;2023-05-17T08:11:38;43.38;;;17.77;;
22268;SDS011;11303;50.772;19.670;2023-05-17T08:13:46;50.03;;;19.88;;
22268;SDS011;11303;50.772;19.670;2023-05-17T08:15:47;45.03;;;20.55;;
22268;SDS011;11303;50.772;19.670;2023-05-17T08:17:51;38.83;;;18.55;;
22268;SDS011;11303;50.772;19.670;2023-05-17T08:19:53;43.03;;;19.63;;
22268;SDS011;11303;50.772;19.670;2023-05-17T08:21:55;40.10;;;15.90;;
22268;SDS011;11303;50.772;19.670;2023-05-17T08:23:57;39.28;;;16.40;;
22268;SDS011;11303;50.772;19.670;2023-05-17T08:25:58;47.47;;;23.23;;
22268;SDS011;11303;50.772;19.670;2023-05-17T08:28:00;41.25;;;18.65;;
22268;SDS011;11303;50.772;19.670;2023-05-17T08:30:02;35.40;;;15.15;;
22268;SDS011;11303;50.772;19.670;2023-05-17T08:32:11;39.92;;;17.77;;
22268;SDS011;11303;50.772;19.670;2023-05-17T08:34:14;44.03;;;22.90;;
22268;SDS011;11303;50.772;19.670;2023-05-17T08:36:15;37.10;;;16.92;;
22268;SDS011;11303;50.772;19.670;2023-05-17T08:38:17;36.05;;;17.17;;
22268;SDS011;11303;50.772;19.670;2023-05-17T08:40:21;49.63;;;23.05;;
22268;SDS011;11303;50.772;19.670;2023-05-17T08:42:22;48.00;;;21.13;;
22268;SDS011;11303;50.772;19.670;2023-05-17T08:44:26;46.78;;;21.38;;
22268;SDS011;11303;50.772;19.670;2023-05-17T08:46:33;49.45;;;20.52;;
22268;SDS011;11303;50.772;19.670;2023-05-17T08:48:37;50.97;;;21.30;;
22268;SDS011;11303;50.772;19.670;2023-05-17T08:50:43;43.15;;;18.65;;
22268;SDS011;11303;50.772;19.670;2023-05-17T08:52:47;48.60;;;21.33;;
22268;SDS011;11303;50.772;19.670;2023-05-17T08:54:50;51.10;;;22.33;;
22268;SDS011;11303;50.772;19.670;2023-05-17T08:56:56;58.05;;;27.42;;
22268;SDS011;11303;50.772;19.670;2023-05-17T08:59:00;51.50;;;25.17;;
22268;SDS011;11303;50.772;19.670;2023-05-17T09:01:06;34.95;;;18.15;;
22268;SDS011;11303;50.772;19.670;2023-05-17T09:03:07;35.53;;;16.10;;
22268;SDS011;11303;50.772;19.670;2023-05-17T09:05:09;53.15;;;25.45;;
22268;SDS011;11303;50.772;19.670;2023-05-17T09:07:14;58.53;;;29.30;;
22268;SDS011;11303;50.772;19.670;2023-05-17T09:09:17;45.17;;;22.33;;
22268;SDS011;11303;50.772;19.670;2023-05-17T09:11:26;46.95;;;24.23;;
22268;SDS011;11303;50.772;19.670;2023-05-17T09:15:30;45.67;;;24.88;;
22268;SDS011;11303;50.772;19.670;2023-05-17T09:17:34;56.65;;;30.27;;
22268;SDS011;11303;50.772;19.670;2023-05-17T09:19:41;39.22;;;18.27;;
22268;SDS011;11303;50.772;19.670;2023-05-17T09:21:45;34.00;;;19.17;;
22268;SDS011;11303;50.772;19.670;2023-05-17T09:23:50;48.92;;;27.55;;
22268;SDS011;11303;50.772;19.670;2023-05-17T09:26:07;44.88;;;20.20;;
22268;SDS011;11303;50.772;19.670;2023-05-17T09:28:08;51.40;;;26.25;;
22268;SDS011;11303;50.772;19.670;2023-05-17T09:30:10;28.10;;;16.27;;
22268;SDS011;11303;50.772;19.670;2023-05-17T09:32:13;45.40;;;22.75;;
22268;SDS011;11303;50.772;19.670;2023-05-17T09:34:20;22.25;;;12.32;;
22268;SDS011;11303;50.772;19.670;2023-05-17T09:36:23;50.33;;;27.73;;
22268;SDS011;11303;50.772;19.670;2023-05-17T09:38:25;46.03;;;24.85;;
22268;SDS011;11303;50.772;19.670;2023-05-17T09:40:30;44.35;;;23.08;;
22268;SDS011;11303;50.772;19.670;2023-05-17T09:42:33;45.42;;;24.25;;
22268;SDS011;11303;50.772;19.670;2023-05-17T09:44:50;45.67;;;25.17;;
22268;SDS011;11303;50.772;19.670;2023-05-17T09:46:53;46.70;;;25.38;;
22268;SDS011;11303;50.772;19.670;2023-05-17T09:48:59;44.05;;;23.20;;
22268;SDS011;11303;50.772;19.670;2023-05-17T09:51:02;41.63;;;22.42;;
22268;SDS011;11303;50.772;19.670;2023-05-17T09:53:09;31.85;;;15.63;;
22268;SDS011;11303;50.772;19.670;2023-05-17T09:55:32;44.85;;;23.52;;
22268;SDS011;11303;50.772;19.670;2023-05-17T09:57:37;36.25;;;20.85;;
22268;SDS011;11303;50.772;19.670;2023-05-17T09:59:39;42.63;;;22.58;;
22268;SDS011;11303;50.772;19.670;2023-05-17T10:01:43;31.70;;;15.98;;
22268;SDS011;11303;50.772;19.670;2023-05-17T10:03:46;42.83;;;21.48;;
22268;SDS011;11303;50.772;19.670;2023-05-17T10:05:49;30.60;;;16.27;;
22268;SDS011;11303;50.772;19.670;2023-05-17T10:07:54;31.65;;;19.85;;
22268;SDS011;11303;50.772;19.670;2023-05-17T10:09:56;18.48;;;11.18;;
22268;SDS011;11303;50.772;19.670;2023-05-17T10:11:58;39.20;;;20.63;;
22268;SDS011;11303;50.772;19.670;2023-05-17T10:14:08;29.38;;;16.42;;
22268;SDS011;11303;50.772;19.670;2023-05-17T10:16:13;31.63;;;19.23;;
22268;SDS011;11303;50.772;19.670;2023-05-17T10:18:15;30.73;;;20.80;;
22268;SDS011;11303;50.772;19.670;2023-05-17T10:20:18;39.00;;;22.73;;
22268;SDS011;11303;50.772;19.670;2023-05-17T10:22:22;24.77;;;13.90;;
22268;SDS011;11303;50.772;19.670;2023-05-17T10:24:24;47.63;;;24.95;;
22268;SDS011;11303;50.772;19.670;2023-05-17T10:26:28;45.10;;;25.15;;
22268;SDS011;11303;50.772;19.670;2023-05-17T10:28:30;44.70;;;22.02;;
22268;SDS011;11303;50.772;19.670;2023-05-17T10:30:33;39.60;;;20.27;;
22268;SDS011;11303;50.772;19.670;2023-05-17T10:32:36;51.55;;;26.27;;
22268;SDS011;11303;50.772;19.670;2023-05-17T10:34:38;38.05;;;17.80;;
22268;SDS011;11303;50.772;19.670;2023-05-17T10:36:40;38.75;;;20.60;;
22268;SDS011;11303;50.772;19.670;2023-05-17T10:38:44;50.30;;;24.38;;
22268;SDS011;11303;50.772;19.670;2023-05-17T10:40:46;51.40;;;25.45;;
22268;SDS011;11303;50.772;19.670;2023-05-17T10:42:49;54.08;;;28.77;;
22268;SDS011;11303;50.772;19.670;2023-05-17T10:44:53;47.17;;;23.40;;
22268;SDS011;11303;50.772;19.670;2023-05-17T10:46:55;50.72;;;26.67;;
22268;SDS011;11303;50.772;19.670;2023-05-17T10:48:59;42.90;;;25.67;;
22268;SDS011;11303;50.772;19.670;2023-05-17T10:51:07;44.63;;;26.35;;
22268;SDS011;11303;50.772;19.670;2023-05-17T10:53:11;35.67;;;20.10;;
22268;SDS011;11303;50.772;19.670;2023-05-17T10:55:17;48.92;;;28.10;;
22268;SDS011;11303;50.772;19.670;2023-05-17T11:00:00;45.63;;;23.65;;
22268;SDS011;11303;50.772;19.670;2023-05-17T11:02:06;53.78;;;29.63;;
22268;SDS011;11303;50.772;19.670;2023-05-17T11:04:22;41.05;;;20.23;;
22268;SDS011;11303;50.772;19.670;2023-05-17T11:06:42;39.90;;;21.40;;
22268;SDS011;11303;50.772;19.670;2023-05-17T11:09:04;23.58;;;14.65;;
22268;SDS011;11303;50.772;19.670;2023-05-17T11:13:42;50.15;;;30.85;;
22268;SDS011;11303;50.772;19.670;2023-05-17T11:15:43;35.58;;;19.77;;
22268;SDS011;11303;50.772;19.670;2023-05-17T11:17:46;59.40;;;40.67;;
22268;SDS011;11303;50.772;19.670;2023-05-17T11:20:00;43.25;;;27.45;;
22268;SDS011;11303;50.772;19.670;2023-05-17T11:22:08;46.63;;;27.65;;
22268;SDS011;11303;50.772;19.670;2023-05-17T11:24:12;45.17;;;21.50;;
22268;SDS011;11303;50.772;19.670;2023-05-17T11:26:26;40.35;;;16.52;;
22268;SDS011;11303;50.772;19.670;2023-05-17T11:28:33;37.00;;;19.80;;
22268;SDS011;11303;50.772;19.670;2023-05-17T11:30:39;34.25;;;14.63;;
22268;SDS011;11303;50.772;19.670;2023-05-17T11:32:45;34.38;;;16.25;;
22268;SDS011;11303;50.772;19.670;2023-05-17T11:34:52;31.33;;;17.20;;
22268;SDS011;11303;50.772;19.670;2023-05-17T11:36:54;28.73;;;16.48;;
22268;SDS011;11303;50.772;19.670;2023-05-17T11:39:12;37.03;;;16.70;;
22268;SDS011;11303;50.772;19.670;2023-05-17T11:41:19;30.60;;;10.05;;
22268;SDS011;11303;50.772;19.670;2023-05-17T11:43:25;26.75;;;14.10;;
22268;SDS011;11303;50.772;19.670;2023-05-17T11:45:38;28.73;;;11.63;;
22268;SDS011;11303;50.772;19.670;2023-05-17T11:47:46;25.67;;;9.57;;
22268;SDS011;11303;50.772;19.670;2023-05-17T11:49:48;21.30;;;10.52;;
22268;SDS011;11303;50.772;19.670;2023-05-17T11:51:56;22.17;;;8.00;;
22268;SDS011;11303;50.772;19.670;2023-05-17T11:53:58;18.73;;;8.63;;
22268;SDS011;11303;50.772;19.670;2023-05-17T11:56:03;15.30;;;8.90;;
22268;SDS011;11303;50.772;19.670;2023-05-17T11:58:07;22.52;;;7.97;;
22268;SDS011;11303;50.772;19.670;2023-05-17T12:00:10;19.83;;;7.18;;
22268;SDS011;11303;50.772;19.670;2023-05-17T12:02:45;20.90;;;7.20;;
22268;SDS011;11303;50.772;19.670;2023-05-17T12:04:40;19.77;;;5.93;;
22268;SDS011;11303;50.772;19.670;2023-05-17T12:06:41;16.83;;;7.70;;
22268;SDS011;11303;50.772;19.670;2023-05-17T12:08:45;17.45;;;7.47;;
22268;SDS011;11303;50.772;19.670;2023-05-17T12:10:49;14.82;;;6.97;;
22268;SDS011;11303;50.772;19.670;2023-05-17T12:12:52;19.15;;;7.43;;
22268;SDS011;11303;50.772;19.670;2023-05-17T12:14:53;20.23;;;8.05;;
22268;SDS011;11303;50.772;19.670;2023-05-17T12:16:55;31.40;;;8.55;;